Time;durP1;ratioP1;P1;durP2;ratioP2;P2;SDS_P1;SDS_P2;PMS_P1;PMS_P2;Temp;Humidity;BMP_temperature;BMP_pressure;BME280_temperature;BME280_humidity;BME280_pressure;Samples;Min_cycle;Max_cycle;Signal;HPM_P1;HPM_P2
2024/01/12 00:02:17;;;;;;;0.10;0.10;;;;;;;5.94;66.47;103567.91;5090003;28;20055;-81
2024/01/12 00:04:43;;;;;;;0.10;0.10;;;;;;;5.98;66.24;103574.16;5094435;28;20032;-80
2024/01/12 00:07:09;;;;;;;0.10;0.10;;;;;;;5.98;66.36;103582.06;5093016;28;20025;-78
2024/01/12 00:09:35;;;;;;;0.15;0.15;;;;;;;5.97;66.38;103590.81;5091565;28;20101;-79
2024/01/12 00:12:02;;;;;;;0.10;0.10;;;;;;;5.97;66.28;103582.94;5086031;28;20064;-81
2024/01/12 00:14:28;;;;;;;0.15;0.15;;;;;;;5.91;66.42;103590.56;5091108;28;20735;-81
2024/01/12 00:16:54;;;;;;;0.10;0.10;;;;;;;5.94;66.26;103585.41;5087718;28;20038;-80
2024/01/12 00:19:20;;;;;;;0.10;0.10;;;;;;;5.92;66.39;103584.44;5087853;28;20067;-80
2024/01/12 00:21:47;;;;;;;0.10;0.10;;;;;;;5.95;66.20;103584.56;5076070;28;20028;-81
2024/01/12 00:24:13;;;;;;;0.10;0.10;;;;;;;5.93;66.17;103586.22;5102757;28;20530;-80
2024/01/12 00:26:39;;;;;;;0.10;0.10;;;;;;;5.94;66.30;103574.88;5106789;28;20040;-80
2024/01/12 00:29:05;;;;;;;0.20;0.20;;;;;;;5.92;66.12;103572.19;5103421;28;20036;-81
2024/01/12 00:31:33;;;;;;;0.20;0.20;;;;;;;5.94;66.25;103569.63;5106450;28;20020;-79
2024/01/12 00:33:59;;;;;;;0.17;0.17;;;;;;;5.93;66.04;103568.72;5102062;28;20020;-79
2024/01/12 00:36:25;;;;;;;0.30;0.30;;;;;;;5.89;66.05;103568.53;5088194;28;20051;-79
2024/01/12 00:38:51;;;;;;;0.20;0.20;;;;;;;5.89;66.11;103569.41;5076584;28;20100;-80
2024/01/12 00:41:18;;;;;;;0.10;0.10;;;;;;;5.91;65.98;103574.75;5086160;28;20028;-81
2024/01/12 00:43:44;;;;;;;0.10;0.10;;;;;;;5.88;65.97;103564.09;5086497;28;20024;-80
2024/01/12 00:46:10;;;;;;;0.10;0.10;;;;;;;5.87;65.72;103567.53;5104961;28;20032;-80
2024/01/12 00:48:36;;;;;;;0.20;0.20;;;;;;;5.84;66.16;103573.56;5106424;28;20032;-81
2024/01/12 00:51:02;;;;;;;0.15;0.15;;;;;;;5.83;66.11;103574.41;5096690;28;20035;-81
2024/01/12 00:53:29;;;;;;;0.10;0.10;;;;;;;5.80;66.03;103577.81;5094929;28;20036;-78
2024/01/12 00:55:55;;;;;;;0.10;0.10;;;;;;;5.83;66.25;103583.22;5089310;28;20086;-80
2024/01/12 00:58:21;;;;;;;0.10;0.10;;;;;;;5.81;66.05;103576.97;5088225;28;20120;-79
2024/01/12 01:00:47;;;;;;;0.10;0.10;;;;;;;5.79;65.93;103577.75;5085197;28;20032;-80
2024/01/12 01:03:13;;;;;;;0.10;0.10;;;;;;;5.76;65.93;103581.13;5085429;28;20059;-80
2024/01/12 01:05:39;;;;;;;0.10;0.10;;;;;;;5.76;66.03;103591.66;5089975;28;20040;-80
2024/01/12 01:08:06;;;;;;;0.10;0.10;;;;;;;5.76;65.83;103598.66;5093000;28;20028;-79
2024/01/12 01:10:32;;;;;;;0.10;0.10;;;;;;;5.74;65.89;103589.81;5089092;28;20032;-80
2024/01/12 01:12:58;;;;;;;0.10;0.10;;;;;;;5.73;66.05;103595.88;5090294;28;20054;-81
2024/01/12 01:15:24;;;;;;;0.20;0.20;;;;;;;5.72;66.02;103595.00;5098092;28;20032;-81
2024/01/12 01:17:51;;;;;;;0.10;0.10;;;;;;;5.74;65.99;103590.69;5085648;28;20024;-82
2024/01/12 01:20:19;;;;;;;0.10;0.10;;;;;;;5.77;65.80;103600.44;5092718;28;20032;-81
2024/01/12 01:22:45;;;;;;;0.10;0.10;;;;;;;5.77;65.61;103593.47;5090570;28;20060;-80
2024/01/12 01:25:11;;;;;;;0.10;0.10;;;;;;;5.78;65.64;103584.75;5090625;28;20052;-81
2024/01/12 01:27:37;;;;;;;0.10;0.10;;;;;;;5.77;65.88;103585.56;5087110;28;20088;-81
2024/01/12 01:30:04;;;;;;;0.10;0.10;;;;;;;5.77;65.85;103582.94;5091382;28;20029;-82
2024/01/12 01:32:30;;;;;;;0.10;0.10;;;;;;;5.77;65.74;103592.56;5088862;28;20024;-81
2024/01/12 01:34:56;;;;;;;0.10;0.10;;;;;;;5.74;65.71;103593.31;5093261;28;20020;-82
2024/01/12 01:37:23;;;;;;;0.10;0.10;;;;;;;5.74;65.60;103597.69;5089334;28;20753;-81
2024/01/12 01:39:49;;;;;;;0.20;0.20;;;;;;;5.71;65.48;103593.19;5103132;28;20032;-82
2024/01/12 01:42:15;;;;;;;0.20;0.20;;;;;;;5.71;65.54;103590.56;5103100;28;20310;-81
2024/01/12 01:44:41;;;;;;;0.10;0.10;;;;;;;5.71;65.71;103589.66;5089186;28;20036;-82
2024/01/12 01:47:08;;;;;;;0.20;0.20;;;;;;;5.69;65.46;103594.84;5093179;28;20020;-82
2024/01/12 01:49:35;;;;;;;0.10;0.10;;;;;;;5.69;65.61;103594.84;5095358;28;20033;-81
2024/01/12 01:52:03;;;;;;;0.10;0.10;;;;;;;5.67;65.36;103593.91;5096852;28;20392;-82
2024/01/12 01:54:30;;;;;;;0.10;0.10;;;;;;;5.68;65.51;103582.53;5090146;28;20032;-80
2024/01/12 01:56:56;;;;;;;0.10;0.10;;;;;;;5.67;65.62;103583.38;5090397;28;20043;-79
2024/01/12 01:59:23;;;;;;;0.10;0.10;;;;;;;5.67;65.44;103581.63;5095272;28;20028;-81
2024/01/12 02:01:50;;;;;;;0.10;0.10;;;;;;;5.67;65.66;103575.50;5091619;28;20052;-81
2024/01/12 02:04:16;;;;;;;0.10;0.10;;;;;;;5.63;65.40;103578.78;5082355;28;20027;-80
2024/01/12 02:06:43;;;;;;;0.10;0.10;;;;;;;5.63;65.49;103584.06;5087985;28;20033;-81
2024/01/12 02:09:10;;;;;;;0.10;0.10;;;;;;;5.62;65.57;103582.25;5087868;28;20298;-81
2024/01/12 02:11:36;;;;;;;0.10;0.10;;;;;;;5.62;65.54;103587.50;5089316;28;20078;-81
2024/01/12 02:14:06;;;;;;;0.10;0.10;;;;;;;5.61;65.63;103583.09;5091862;28;20043;-80
2024/01/12 02:16:34;;;;;;;0.10;0.10;;;;;;;5.61;65.51;103594.50;5091729;28;20024;-81
2024/01/12 02:19:01;;;;;;;0.13;0.13;;;;;;;5.61;65.61;103593.63;5100527;28;20546;-80
2024/01/12 02:21:27;;;;;;;0.10;0.10;;;;;;;5.62;65.51;103598.03;5099536;28;20028;-81
2024/01/12 02:23:54;;;;;;;0.10;0.10;;;;;;;5.61;65.61;103593.63;5087235;28;20025;-82
2024/01/12 02:26:20;;;;;;;0.10;0.10;;;;;;;5.61;65.77;103583.09;5082956;28;20033;-81
2024/01/12 02:28:47;;;;;;;0.10;0.10;;;;;;;5.62;65.78;103583.16;5091292;28;20102;-81
2024/01/12 02:31:15;;;;;;;0.15;0.15;;;;;;;5.65;65.57;103587.66;5089786;28;20103;-81
2024/01/12 02:33:41;;;;;;;0.10;0.10;;;;;;;5.64;65.62;103591.13;5093621;28;20047;-82
2024/01/12 02:36:07;;;;;;;0.10;0.10;;;;;;;5.64;65.81;103591.13;5094202;28;20088;-81
2024/01/12 02:38:34;;;;;;;0.20;0.20;;;;;;;5.64;65.68;103584.13;5094784;28;20400;-81
2024/01/12 02:41:00;;;;;;;0.10;0.10;;;;;;;5.63;65.65;103584.97;5098922;28;20107;-81
2024/01/12 02:43:26;;;;;;;0.20;0.20;;;;;;;5.64;65.72;103589.38;5093988;28;20034;-82
2024/01/12 02:45:52;;;;;;;0.10;0.10;;;;;;;5.64;65.65;103585.84;5106481;28;20012;-82
2024/01/12 02:48:18;;;;;;;0.10;0.10;;;;;;;5.64;65.69;103580.59;5091223;28;20041;-82
2024/01/12 02:50:44;;;;;;;0.20;0.20;;;;;;;5.62;65.71;103576.97;5102069;28;20032;-82
2024/01/12 02:53:10;;;;;;;0.13;0.13;;;;;;;5.62;65.64;103569.09;5090806;28;20090;-81
2024/01/12 02:55:37;;;;;;;0.10;0.10;;;;;;;5.62;65.58;103571.72;5095831;28;20013;-81
2024/01/12 02:58:03;;;;;;;0.10;0.10;;;;;;;5.63;65.58;103569.19;5107723;28;20032;-81
2024/01/12 03:00:30;;;;;;;0.10;0.10;;;;;;;5.64;65.44;103575.34;5097660;28;20047;-81
2024/01/12 03:02:56;;;;;;;0.10;0.10;;;;;;;5.63;65.61;103578.78;5097449;28;20025;-82
2024/01/12 03:05:23;;;;;;;0.10;0.10;;;;;;;5.65;65.69;103556.09;5102704;28;20058;-81
2024/01/12 03:07:49;;;;;;;0.10;0.10;;;;;;;5.65;65.60;103550.84;5102397;28;20031;-82
2024/01/12 03:10:17;;;;;;;0.10;0.10;;;;;;;5.67;65.59;103559.72;5094380;28;20048;-82
2024/01/12 03:12:43;;;;;;;0.75;0.75;;;;;;;5.62;65.51;103562.13;5107864;28;20028;-82
2024/01/12 03:15:09;;;;;;;0.10;0.10;;;;;;;5.61;65.44;103554.16;5092505;28;20040;-82
2024/01/12 03:17:36;;;;;;;0.10;0.10;;;;;;;5.59;65.43;103545.31;5092192;28;20080;-82
2024/01/12 03:20:04;;;;;;;0.10;0.10;;;;;;;5.58;65.37;103552.31;5099089;28;20024;-82
2024/01/12 03:22:31;;;;;;;0.10;0.10;;;;;;;5.57;65.40;103549.59;5102260;28;20032;-82
2024/01/12 03:24:57;;;;;;;0.10;0.10;;;;;;;5.58;65.60;103559.28;5101600;28;20123;-82
2024/01/12 03:27:23;;;;;;;0.10;0.10;;;;;;;5.57;65.59;103558.41;5093269;28;20012;-83
2024/01/12 03:29:50;;;;;;;0.10;0.10;;;;;;;5.57;65.60;103550.50;5092490;28;20103;-82
2024/01/12 03:32:16;;;;;;;0.20;0.20;;;;;;;5.56;65.61;103542.53;5102360;28;20028;-82
2024/01/12 03:34:42;;;;;;;0.10;0.10;;;;;;;5.55;65.58;103549.53;5090520;28;20062;-82
2024/01/12 03:37:08;;;;;;;0.10;0.10;;;;;;;5.56;65.50;103542.53;5102283;28;20047;-81
2024/01/12 03:39:34;;;;;;;0.20;0.20;;;;;;;5.58;65.52;103546.13;5099337;28;20043;-82
2024/01/12 03:42:00;;;;;;;0.10;0.10;;;;;;;5.57;65.46;103549.59;5103839;28;20036;-82
2024/01/12 03:44:27;;;;;;;0.10;0.10;;;;;;;5.56;65.54;103540.81;5101345;28;20021;-83
2024/01/12 03:46:53;;;;;;;0.10;0.10;;;;;;;5.56;65.31;103539.88;5094059;28;20596;-82
2024/01/12 03:49:19;;;;;;;0.20;0.20;;;;;;;5.56;65.29;103532.00;5103990;28;20075;-82
2024/01/12 03:51:53;;;;;;;0.10;0.10;;;;;;;5.56;65.50;103527.66;5101260;28;20028;-82
2024/01/12 03:54:23;;;;;;;0.10;0.10;;;;;;;5.55;65.50;103522.34;5102596;28;20032;-81
2024/01/12 03:56:49;;;;;;;0.20;0.20;;;;;;;5.54;65.58;103525.78;5096033;28;20028;-81
2024/01/12 03:59:16;;;;;;;0.10;0.10;;;;;;;5.57;65.68;103525.91;5095566;28;20048;-81
2024/01/12 04:01:43;;;;;;;0.10;0.10;;;;;;;5.55;65.55;103528.50;5089041;28;20039;-83
2024/01/12 04:04:10;;;;;;;0.10;0.10;;;;;;;5.54;65.35;103526.69;5092093;28;20053;-82
2024/01/12 04:06:37;;;;;;;0.17;0.17;;;;;;;5.55;65.59;103527.59;5091226;28;20578;-82
2024/01/12 04:09:03;;;;;;;0.10;0.10;;;;;;;5.55;65.54;103528.50;5094723;28;20036;-81
2024/01/12 04:11:29;;;;;;;0.10;0.10;;;;;;;5.56;65.63;103537.25;5107868;28;20032;-81
2024/01/12 04:13:55;;;;;;;0.10;0.10;;;;;;;5.55;65.51;103527.59;5090963;28;20032;-81
2024/01/12 04:16:22;;;;;;;0.10;0.10;;;;;;;5.54;65.72;103542.47;5082614;28;20046;-81
2024/01/12 04:18:48;;;;;;;0.20;0.20;;;;;;;5.55;65.75;103540.75;5091464;28;20033;-82
2024/01/12 04:21:14;;;;;;;0.10;0.10;;;;;;;5.54;65.61;103546.84;5092680;28;20104;-81
2024/01/12 04:23:40;;;;;;;0.10;0.10;;;;;;;5.53;65.69;103539.78;5091182;28;20107;-82
2024/01/12 04:26:07;;;;;;;0.20;0.20;;;;;;;5.54;65.70;103541.56;5103397;28;20578;-81
2024/01/12 04:28:34;;;;;;;0.25;0.25;;;;;;;5.53;65.73;103545.03;5091978;28;20037;-82
2024/01/12 04:31:03;;;;;;;0.13;0.13;;;;;;;5.56;65.67;103551.31;5090590;28;20036;-83
2024/01/12 04:33:31;;;;;;;0.10;0.10;;;;;;;5.56;65.64;103545.16;5089722;28;20043;-82
2024/01/12 04:35:58;;;;;;;0.10;0.10;;;;;;;5.57;65.60;103544.31;5087655;28;20048;-82
2024/01/12 04:38:26;;;;;;;0.20;0.20;;;;;;;5.59;65.58;103540.03;5088844;28;20032;-82
2024/01/12 04:40:53;;;;;;;0.13;0.13;;;;;;;5.58;65.71;103532.97;5090109;28;20036;-82
2024/01/12 04:43:20;;;;;;;0.10;0.10;;;;;;;5.58;65.70;103532.97;5090190;28;20024;-81
2024/01/12 04:45:46;;;;;;;0.20;0.20;;;;;;;5.58;65.54;103531.28;5094919;28;20376;-80
2024/01/12 04:48:12;;;;;;;0.10;0.10;;;;;;;5.58;65.56;103522.47;5094450;28;20039;-78
2024/01/12 04:50:39;;;;;;;0.10;0.10;;;;;;;5.59;65.56;103521.63;5091555;28;20059;-81
2024/01/12 04:53:05;;;;;;;0.10;0.10;;;;;;;5.58;65.67;103522.47;5087983;28;20033;-81
2024/01/12 04:55:31;;;;;;;0.20;0.20;;;;;;;5.60;65.55;103523.44;5104671;28;20028;-81
2024/01/12 04:57:57;;;;;;;0.10;0.10;;;;;;;5.62;65.50;103521.75;5099840;28;20020;-81
2024/01/12 05:00:23;;;;;;;0.20;0.20;;;;;;;5.61;65.68;103522.59;5106476;28;20028;-80
2024/01/12 05:02:49;;;;;;;0.20;0.20;;;;;;;5.61;65.71;103517.34;5090166;28;20075;-81
2024/01/12 05:05:16;;;;;;;0.20;0.20;;;;;;;5.61;65.73;103517.34;5092817;28;20118;-81
2024/01/12 05:07:42;;;;;;;0.20;0.20;;;;;;;5.58;65.60;103522.47;5092954;28;20032;-82
2024/01/12 05:10:08;;;;;;;0.10;0.10;;;;;;;5.58;65.86;103520.75;5096023;28;20033;-82
2024/01/12 05:12:35;;;;;;;0.10;0.10;;;;;;;5.59;65.70;103519.88;5091548;28;20111;-82
2024/01/12 05:15:02;;;;;;;0.20;0.20;;;;;;;5.59;65.79;103524.25;5090431;28;20517;-81
2024/01/12 05:17:28;;;;;;;0.10;0.10;;;;;;;5.59;65.70;103524.25;5086160;28;20031;-83
2024/01/12 05:19:54;;;;;;;0.20;0.20;;;;;;;5.58;65.70;103527.72;5084962;28;20032;-82
2024/01/12 05:22:20;;;;;;;0.10;0.10;;;;;;;5.58;65.66;103527.72;5088428;28;20036;-83
2024/01/12 05:24:46;;;;;;;0.10;0.10;;;;;;;5.58;65.67;103527.72;5104476;28;20083;-81
2024/01/12 05:27:12;;;;;;;0.20;0.20;;;;;;;5.58;65.86;103531.28;5116429;28;20047;-81
2024/01/12 05:29:39;;;;;;;0.20;0.20;;;;;;;5.60;65.87;103532.22;5116409;28;20028;-80
2024/01/12 05:32:05;;;;;;;0.10;0.10;;;;;;;5.60;65.81;103534.84;5094374;28;20025;-80
2024/01/12 05:34:31;;;;;;;0.10;0.10;;;;;;;5.59;65.84;103534.78;5088198;28;20056;-80
2024/01/12 05:36:57;;;;;;;0.10;0.10;;;;;;;5.60;66.09;103541.84;5089410;28;20024;-82
2024/01/12 05:39:23;;;;;;;0.20;0.20;;;;;;;5.61;65.81;103535.75;5088596;28;20162;-81
2024/01/12 05:41:50;;;;;;;0.10;0.10;;;;;;;5.60;65.82;103531.31;5087659;28;20036;-81
2024/01/12 05:44:16;;;;;;;0.10;0.10;;;;;;;5.60;65.78;103536.59;5087968;28;20078;-82
2024/01/12 05:46:42;;;;;;;0.20;0.20;;;;;;;5.60;65.80;103532.22;5087074;28;20066;-82
2024/01/12 05:49:08;;;;;;;0.10;0.10;;;;;;;5.62;65.88;103527.00;5084813;28;20089;-80
2024/01/12 05:51:35;;;;;;;0.20;0.20;;;;;;;5.62;65.93;103535.81;5087467;28;20088;-80
2024/01/12 05:54:01;;;;;;;0.10;0.10;;;;;;;5.63;65.91;103526.19;5089592;28;20056;-81
2024/01/12 05:56:27;;;;;;;0.20;0.20;;;;;;;5.64;66.00;103535.88;5087246;28;20035;-80
2024/01/12 05:58:53;;;;;;;0.10;0.10;;;;;;;5.65;66.10;103535.94;5084109;28;20098;-81
2024/01/12 06:01:19;;;;;;;0.10;0.10;;;;;;;5.67;65.80;103528.13;5076572;28;20042;-81
2024/01/12 06:03:46;;;;;;;1.25;1.25;;;;;;;5.66;66.08;103537.75;5080922;28;20066;-81
2024/01/12 06:06:12;;;;;;;0.10;0.10;;;;;;;5.69;65.91;103530.81;5082722;28;20399;-81
2024/01/12 06:08:38;;;;;;;0.20;0.20;;;;;;;5.71;65.79;103535.31;5084455;28;20113;-81
2024/01/12 06:11:05;;;;;;;0.10;0.10;;;;;;;5.73;65.97;103543.28;5082796;28;20044;-79
2024/01/12 06:13:32;;;;;;;0.20;0.20;;;;;;;5.72;66.05;103537.13;5084163;28;20039;-80
2024/01/12 06:15:58;;;;;;;0.20;0.20;;;;;;;5.73;66.04;103530.13;5084587;28;20031;-80
2024/01/12 06:18:24;;;;;;;0.10;0.10;;;;;;;5.74;66.07;103538.06;5085975;28;20028;-80
2024/01/12 06:20:50;;;;;;;0.10;0.10;;;;;;;5.75;66.05;103534.63;5086568;28;20047;-80
2024/01/12 06:23:16;;;;;;;0.10;0.10;;;;;;;5.73;65.89;103536.31;5087785;28;20053;-79
2024/01/12 06:25:42;;;;;;;0.15;0.15;;;;;;;5.74;65.83;103539.81;5090067;28;20033;-80
2024/01/12 06:28:09;;;;;;;0.10;0.10;;;;;;;5.74;65.96;103534.56;5085747;28;20032;-80
2024/01/12 06:30:35;;;;;;;0.10;0.10;;;;;;;5.74;65.78;103540.69;5087463;28;20089;-80
2024/01/12 06:33:01;;;;;;;0.10;0.10;;;;;;;5.74;65.84;103543.34;5082520;28;20075;-80
2024/01/12 06:35:27;;;;;;;0.10;0.10;;;;;;;5.73;65.90;103533.66;5083662;28;20070;-80
2024/01/12 06:37:53;;;;;;;0.10;0.10;;;;;;;5.74;65.69;103535.44;5090149;28;20487;-80
2024/01/12 06:40:19;;;;;;;0.10;0.10;;;;;;;5.76;65.75;103544.31;5086218;28;20396;-84
2024/01/12 06:42:45;;;;;;;0.10;0.10;;;;;;;5.77;65.73;103540.84;5085301;28;20088;-79
2024/01/12 06:45:12;;;;;;;0.10;0.10;;;;;;;5.74;65.83;103538.06;5085989;28;20111;-81
2024/01/12 06:47:38;;;;;;;0.10;0.10;;;;;;;5.73;65.69;103544.19;5094530;28;20054;-79
2024/01/12 06:50:04;;;;;;;0.10;0.10;;;;;;;5.69;65.70;103542.25;5091738;28;20071;-81
2024/01/12 06:52:31;;;;;;;0.10;0.10;;;;;;;5.68;65.74;103540.44;5094668;28;20090;-81
2024/01/12 06:54:57;;;;;;;0.10;0.10;;;;;;;5.70;65.78;103544.03;5101835;28;20032;-82
2024/01/12 06:57:23;;;;;;;0.10;0.10;;;;;;;5.71;65.80;103545.84;5097037;28;20035;-81
2024/01/12 06:59:49;;;;;;;0.10;0.10;;;;;;;5.70;65.72;103538.78;5106925;28;20032;-81
2024/01/12 07:02:16;;;;;;;0.15;0.15;;;;;;;5.70;65.75;103538.78;5106064;28;20043;-80
2024/01/12 07:04:42;;;;;;;0.20;0.20;;;;;;;5.72;65.63;103544.09;5098770;28;20056;-80
2024/01/12 07:07:09;;;;;;;0.20;0.20;;;;;;;5.73;66.10;103543.28;5091290;28;20036;-80
2024/01/12 07:09:35;;;;;;;0.20;0.20;;;;;;;5.74;65.95;103540.69;5108250;28;20046;-81
2024/01/12 07:12:03;;;;;;;0.20;0.20;;;;;;;5.71;65.99;103537.94;5099398;28;20093;-81
2024/01/12 07:14:29;;;;;;;0.10;0.10;;;;;;;5.71;65.91;103530.06;5091141;28;20062;-81
2024/01/12 07:16:56;;;;;;;0.10;0.10;;;;;;;5.73;65.99;103530.13;5084393;28;20036;-83
2024/01/12 07:19:22;;;;;;;0.10;0.10;;;;;;;5.71;65.59;103532.69;5087106;28;20033;-80
2024/01/12 07:21:48;;;;;;;0.10;0.10;;;;;;;5.63;66.18;103537.63;5088626;28;20044;-80
2024/01/12 07:24:14;;;;;;;0.10;0.10;;;;;;;5.66;66.00;103532.47;5086460;28;20024;-83
2024/01/12 07:26:41;;;;;;;0.10;0.10;;;;;;;5.62;66.31;103530.56;5084711;28;20470;-82
2024/01/12 07:29:07;;;;;;;0.10;0.10;;;;;;;5.62;65.98;103533.19;5080903;28;20020;-82
2024/01/12 07:31:35;;;;;;;0.10;0.10;;;;;;;5.64;66.37;103538.50;5084079;28;20426;-81
2024/01/12 07:34:04;;;;;;;0.10;0.10;;;;;;;5.63;66.24;103528.81;5087885;28;20036;-82
2024/01/12 07:36:30;;;;;;;0.10;0.10;;;;;;;5.66;66.01;103523.72;5090893;28;20031;-82
2024/01/12 07:38:57;;;;;;;0.10;0.10;;;;;;;5.66;66.10;103531.59;5082389;28;20516;-82
2024/01/12 07:41:23;;;;;;;0.10;0.10;;;;;;;5.63;66.09;103520.91;5081262;28;20028;-81
2024/01/12 07:43:49;;;;;;;0.10;0.10;;;;;;;5.60;66.07;103526.06;5105353;28;20063;-81
2024/01/12 07:46:17;;;;;;;3.20;2.05;;;;;;;5.58;66.38;103523.38;5096665;28;20096;-82
2024/01/12 07:48:44;;;;;;;0.10;0.10;;;;;;;5.61;66.22;103522.59;5092012;28;20084;-82
2024/01/12 07:51:10;;;;;;;0.20;0.20;;;;;;;5.63;66.18;103515.66;5092863;28;20147;-82
2024/01/12 07:53:36;;;;;;;0.10;0.10;;;;;;;5.63;66.28;103513.94;5094873;28;20032;-80
2024/01/12 07:56:02;;;;;;;0.10;0.10;;;;;;;5.64;66.29;103517.47;5103633;28;20028;-82
2024/01/12 07:58:29;;;;;;;0.13;0.13;;;;;;;5.70;65.96;103519.47;5100319;28;20035;-80
2024/01/12 08:00:55;;;;;;;0.10;0.10;;;;;;;5.68;66.53;103522.03;5098140;28;20058;-81
2024/01/12 08:03:21;;;;;;;0.10;0.10;;;;;;;5.71;66.28;103523.88;5106257;28;20047;-81
2024/01/12 08:05:47;;;;;;;0.20;0.20;;;;;;;5.72;66.18;103521.34;5093051;28;20031;-80
2024/01/12 08:08:13;;;;;;;0.10;0.10;;;;;;;5.72;66.51;103529.22;5099343;28;20028;-81
2024/01/12 08:10:39;;;;;;;0.17;0.17;;;;;;;5.75;66.45;103524.09;5079119;28;20025;-81
2024/01/12 08:13:06;;;;;;;0.13;0.13;;;;;;;5.74;66.71;103539.81;5084594;28;20082;-81
2024/01/12 08:15:32;;;;;;;0.20;0.20;;;;;;;5.74;66.53;103530.19;5085692;28;20032;-81
2024/01/12 08:17:58;;;;;;;0.10;0.10;;;;;;;5.79;66.41;103538.28;5085853;28;20402;-81
2024/01/12 08:20:24;;;;;;;0.10;0.10;;;;;;;5.82;66.83;103543.69;5085101;28;20028;-81
2024/01/12 08:22:50;;;;;;;0.43;0.43;;;;;;;5.88;66.06;103535.13;5086504;28;20028;-81
2024/01/12 08:25:17;;;;;;;0.10;0.10;;;;;;;5.90;66.38;103536.13;5085648;28;20016;-81
2024/01/12 08:27:43;;;;;;;0.10;0.10;;;;;;;5.94;66.20;103540.66;5086758;28;20056;-81
2024/01/12 08:30:09;;;;;;;0.40;0.40;;;;;;;5.89;66.37;103548.34;5086261;28;20024;-81
2024/01/12 08:32:35;;;;;;;0.10;0.10;;;;;;;5.97;66.23;103543.44;5085934;28;20021;-82
2024/01/12 08:35:02;;;;;;;0.10;0.10;;;;;;;5.94;66.08;103549.47;5086310;28;20040;-81
2024/01/12 08:37:28;;;;;;;0.17;0.17;;;;;;;5.95;65.97;103547.75;5085386;28;20527;-82
2024/01/12 08:39:54;;;;;;;0.10;0.10;;;;;;;5.96;66.19;103552.16;5091031;28;20032;-81
2024/01/12 08:42:20;;;;;;;0.20;0.20;;;;;;;5.99;66.09;103547.97;5101851;28;20032;-81
2024/01/12 08:44:46;;;;;;;0.10;0.10;;;;;;;6.05;66.06;103543.81;5095824;28;20487;-81
2024/01/12 08:47:12;;;;;;;0.10;0.10;;;;;;;6.09;65.92;103549.28;5090171;28;20025;-81
2024/01/12 08:49:38;;;;;;;0.15;0.15;;;;;;;6.16;66.37;103553.03;5088077;28;20033;-81
2024/01/12 08:52:05;;;;;;;0.10;0.10;;;;;;;6.19;65.72;103552.28;5087077;28;20085;-81
2024/01/12 08:54:31;;;;;;;2.20;2.08;;;;;;;6.19;65.81;103555.78;5086246;28;20035;-81
2024/01/12 08:56:57;;;;;;;0.10;0.10;;;;;;;6.19;66.03;103553.16;5089527;28;20042;-81
2024/01/12 08:59:25;;;;;;;0.10;0.10;;;;;;;6.23;65.91;103552.47;5088134;28;20020;-81
2024/01/12 09:01:51;;;;;;;0.10;0.10;;;;;;;6.25;65.58;103544.63;5091969;28;20024;-81
2024/01/12 09:04:17;;;;;;;0.10;0.10;;;;;;;6.29;65.59;103546.53;5090771;28;20032;-81
2024/01/12 09:06:44;;;;;;;0.52;0.52;;;;;;;6.31;65.72;103539.63;5080625;28;20036;-82
2024/01/12 09:09:10;;;;;;;0.98;0.98;;;;;;;6.33;65.49;103537.97;5095303;28;20473;-81
2024/01/12 09:11:36;;;;;;;0.10;0.10;;;;;;;6.36;65.82;103539.81;5094937;28;20032;-82
2024/01/12 09:14:03;;;;;;;0.47;0.47;;;;;;;6.40;65.59;103542.63;5097256;28;20012;-81
2024/01/12 09:16:29;;;;;;;0.10;0.10;;;;;;;6.39;65.28;103538.22;5114782;28;20084;-81
2024/01/12 09:18:55;;;;;;;4.97;1.10;;;;;;;6.45;64.98;103537.53;5094767;28;20047;-82
2024/01/12 09:21:23;;;;;;;0.10;0.10;;;;;;;6.47;65.13;103542.03;5096754;28;20032;-82
2024/01/12 09:23:49;;;;;;;0.10;0.10;;;;;;;6.53;65.24;103540.47;5098604;28;20050;-83
2024/01/12 09:26:15;;;;;;;0.10;0.10;;;;;;;6.53;65.27;103536.13;5099778;28;20381;-80
2024/01/12 09:28:42;;;;;;;0.68;0.68;;;;;;;6.55;64.81;103534.44;5099155;28;20459;-81
2024/01/12 09:31:08;;;;;;;0.10;0.10;;;;;;;6.54;64.96;103526.47;5089315;28;20057;-80
2024/01/12 09:33:34;;;;;;;0.10;0.10;;;;;;;6.59;64.35;103535.47;5096949;28;20028;-81
2024/01/12 09:36:03;;;;;;;0.20;0.20;;;;;;;6.62;64.38;103535.59;5087636;28;20457;-82
2024/01/12 09:38:29;;;;;;;0.15;0.15;;;;;;;6.67;64.50;103527.84;5094534;28;20056;-81
2024/01/12 09:40:58;;;;;;;0.10;0.10;;;;;;;6.67;64.29;103535.75;5095116;28;20043;-85
2024/01/12 09:43:29;;;;;;;0.13;0.13;;;;;;;6.73;64.30;103536.91;5086817;28;20033;-80
2024/01/12 09:46:00;;;;;;;0.20;0.20;;;;;;;6.79;64.54;103544.16;5080139;28;20020;-80
2024/01/12 09:48:27;;;;;;;0.40;0.40;;;;;;;6.80;64.47;103536.31;5094341;28;20574;-80
2024/01/12 09:50:55;;;;;;;0.10;0.10;;;;;;;6.82;64.25;103548.63;5083523;28;20582;-81
2024/01/12 09:53:22;;;;;;;0.25;0.25;;;;;;;6.86;64.00;103546.19;5092805;28;20028;-81
2024/01/12 09:55:49;;;;;;;0.10;0.10;;;;;;;6.92;64.42;103542.91;5095671;28;20031;-80
2024/01/12 09:58:18;;;;;;;0.43;0.43;;;;;;;6.93;63.81;103542.06;5088181;28;20036;-81
2024/01/12 10:00:47;;;;;;;0.10;0.10;;;;;;;6.91;64.31;103549.00;5093910;28;20095;-81
2024/01/12 10:03:16;;;;;;;0.20;0.20;;;;;;;6.94;64.00;103549.13;5093630;28;20032;-81
2024/01/12 10:05:43;;;;;;;0.20;0.20;;;;;;;6.98;63.20;103543.16;5087423;28;20060;-80
2024/01/12 10:08:09;;;;;;;0.20;0.20;;;;;;;6.94;62.79;103546.47;5081633;28;20036;-81
2024/01/12 10:10:37;;;;;;;0.10;0.10;;;;;;;7.06;63.62;103554.88;5090942;28;20549;-81
2024/01/12 10:13:03;;;;;;;0.10;0.10;;;;;;;7.05;62.61;103557.44;5095218;28;20034;-81
2024/01/12 10:15:29;;;;;;;0.10;0.10;;;;;;;7.12;63.01;103548.94;5095262;28;20407;-80
2024/01/12 10:17:56;;;;;;;0.20;0.20;;;;;;;7.16;62.87;103555.22;5085888;28;20039;-81
2024/01/12 10:20:22;;;;;;;0.10;0.10;;;;;;;7.18;62.51;103564.06;5088032;28;20137;-81
2024/01/12 10:22:57;;;;;;;0.10;0.10;;;;;;;7.30;63.40;103548.72;5085780;28;20036;-81
2024/01/12 10:25:23;;;;;;;0.85;0.85;;;;;;;7.29;62.96;103546.94;5086500;28;20035;-81
2024/01/12 10:27:58;;;;;;;0.10;0.10;;;;;;;7.35;62.73;103543.63;5098147;28;20055;-80
2024/01/12 10:30:24;;;;;;;0.10;0.10;;;;;;;7.34;62.97;103537.47;5098468;28;20588;-80
2024/01/12 10:32:51;;;;;;;0.10;0.10;;;;;;;7.33;62.85;103543.56;5096665;28;20028;-80
2024/01/12 10:35:20;;;;;;;0.10;0.10;;;;;;;7.31;62.02;103539.09;5095437;28;20506;-80
2024/01/12 10:37:47;;;;;;;0.10;0.10;;;;;;;7.36;62.72;103537.50;5095020;28;20040;-80
2024/01/12 10:40:16;;;;;;;0.20;0.20;;;;;;;7.38;62.42;103525.28;5096168;28;20020;-80
2024/01/12 10:42:48;;;;;;;0.20;0.20;;;;;;;7.49;62.39;103520.38;5095889;28;20740;-80
2024/01/12 10:45:21;;;;;;;0.22;0.22;;;;;;;7.50;62.14;103523.09;5097257;28;20070;-81
2024/01/12 10:47:58;;;;;;;0.20;0.20;;;;;;;7.50;62.47;103519.53;5085376;28;20032;-80
2024/01/12 10:50:25;;;;;;;0.10;0.10;;;;;;;7.47;61.77;103522.09;5098641;28;20089;-80
2024/01/12 10:53:22;;;;;;;0.10;0.10;;;;;;;7.61;61.98;103504.97;5077154;28;20032;-80
2024/01/12 10:55:55;;;;;;;0.10;0.10;;;;;;;7.67;61.80;103507.84;5095051;28;20434;-81
2024/01/12 10:58:22;;;;;;;0.10;0.10;;;;;;;7.69;61.66;103499.97;5094022;28;20150;-81
2024/01/12 11:00:49;;;;;;;0.20;0.20;;;;;;;7.72;61.60;103495.69;5076877;28;20399;-80
2024/01/12 11:03:16;;;;;;;0.20;0.20;;;;;;;7.73;61.46;103491.34;5074834;28;20028;-81
2024/01/12 11:05:44;;;;;;;0.10;0.10;;;;;;;7.79;60.82;103491.56;5074105;28;20055;-81
2024/01/12 11:08:12;;;;;;;0.10;0.10;;;;;;;7.86;61.65;103495.28;5071200;28;20029;-81
2024/01/12 11:10:46;;;;;;;0.10;0.10;;;;;;;7.88;61.25;103490.97;5056761;28;20086;-81
2024/01/12 11:13:16;;;;;;;0.25;0.25;;;;;;;7.94;61.46;103496.44;5050747;28;20036;-81
2024/01/12 11:15:43;;;;;;;0.10;0.10;;;;;;;7.98;61.15;103494.81;5054788;28;20038;-80
2024/01/12 11:18:10;;;;;;;0.10;0.10;;;;;;;8.02;61.50;103497.59;5053195;28;20123;-80
2024/01/12 11:20:36;;;;;;;0.10;0.10;;;;;;;8.08;61.22;103496.91;5054789;28;20100;-80
2024/01/12 11:23:02;;;;;;;0.10;0.10;;;;;;;8.03;60.44;103496.75;5057717;28;20075;-81
2024/01/12 11:25:29;;;;;;;0.20;0.20;;;;;;;8.05;60.38;103500.34;5061116;28;20495;-81
2024/01/12 11:27:56;;;;;;;1.23;1.23;;;;;;;8.09;60.86;103491.66;5068747;28;21412;-80
2024/01/12 11:30:26;;;;;;;0.20;0.20;;;;;;;8.13;61.17;103500.59;5061692;28;20078;-80
2024/01/12 11:33:08;;;;;;;0.10;0.10;;;;;;;8.22;61.10;103502.63;5064242;28;20032;-80